sensor_id;sensor_type;location;lat;lon;timestamp;temperature;humidity
52495;DHT22;38405;53.212;5.660;2023-04-24T00:02:21;10.30;99.90
52495;DHT22;38405;53.212;5.660;2023-04-24T00:04:47;10.30;99.90
52495;DHT22;38405;53.212;5.660;2023-04-24T00:07:14;10.30;99.90
52495;DHT22;38405;53.212;5.660;2023-04-24T00:09:43;10.40;99.90
52495;DHT22;38405;53.212;5.660;2023-04-24T00:12:09;10.40;99.90
52495;DHT22;38405;53.212;5.660;2023-04-24T00:14:35;10.30;99.90
52495;DHT22;38405;53.212;5.660;2023-04-24T00:17:01;10.20;99.90
52495;DHT22;38405;53.212;5.660;2023-04-24T00:19:28;10.30;99.90
52495;DHT22;38405;53.212;5.660;2023-04-24T00:21:54;10.30;99.90
52495;DHT22;38405;53.212;5.660;2023-04-24T00:24:20;10.30;99.90
52495;DHT22;38405;53.212;5.660;2023-04-24T00:26:46;10.30;99.90
52495;DHT22;38405;53.212;5.660;2023-04-24T00:29:12;10.30;99.90
52495;DHT22;38405;53.212;5.660;2023-04-24T00:31:38;10.30;99.90
52495;DHT22;38405;53.212;5.660;2023-04-24T00:34:04;10.40;99.90
52495;DHT22;38405;53.212;5.660;2023-04-24T00:36:30;10.30;99.90
52495;DHT22;38405;53.212;5.660;2023-04-24T00:38:56;10.30;99.90
52495;DHT22;38405;53.212;5.660;2023-04-24T00:41:23;10.30;99.90
52495;DHT22;38405;53.212;5.660;2023-04-24T00:43:50;10.30;99.90
52495;DHT22;38405;53.212;5.660;2023-04-24T00:46:16;10.20;99.90
52495;DHT22;38405;53.212;5.660;2023-04-24T00:48:43;10.30;99.90
52495;DHT22;38405;53.212;5.660;2023-04-24T00:51:08;10.30;99.90
52495;DHT22;38405;53.212;5.660;2023-04-24T00:53:34;10.30;99.90
52495;DHT22;38405;53.212;5.660;2023-04-24T00:56:00;10.30;99.90
52495;DHT22;38405;53.212;5.660;2023-04-24T00:58:26;10.30;99.90
52495;DHT22;38405;53.212;5.660;2023-04-24T01:00:52;10.30;99.90
52495;DHT22;38405;53.212;5.660;2023-04-24T01:03:25;10.30;99.90
52495;DHT22;38405;53.212;5.660;2023-04-24T01:05:52;10.30;99.90
52495;DHT22;38405;53.212;5.660;2023-04-24T01:08:19;10.40;99.90
52495;DHT22;38405;53.212;5.660;2023-04-24T01:10:47;10.30;99.90
52495;DHT22;38405;53.212;5.660;2023-04-24T01:13:14;10.30;99.90
52495;DHT22;38405;53.212;5.660;2023-04-24T01:15:39;10.30;99.90
52495;DHT22;38405;53.212;5.660;2023-04-24T01:18:05;10.30;99.90
52495;DHT22;38405;53.212;5.660;2023-04-24T01:20:31;10.30;99.90
52495;DHT22;38405;53.212;5.660;2023-04-24T01:22:57;10.30;99.90
52495;DHT22;38405;53.212;5.660;2023-04-24T01:25:24;10.40;99.90
52495;DHT22;38405;53.212;5.660;2023-04-24T01:27:51;10.30;99.90
52495;DHT22;38405;53.212;5.660;2023-04-24T01:30:18;10.40;99.90
52495;DHT22;38405;53.212;5.660;2023-04-24T01:32:44;10.30;99.90
52495;DHT22;38405;53.212;5.660;2023-04-24T01:35:11;10.40;99.90
52495;DHT22;38405;53.212;5.660;2023-04-24T01:37:36;10.30;99.90
52495;DHT22;38405;53.212;5.660;2023-04-24T01:40:06;10.30;99.90
52495;DHT22;38405;53.212;5.660;2023-04-24T01:42:33;10.30;99.90
52495;DHT22;38405;53.212;5.660;2023-04-24T01:44:59;10.20;99.90
52495;DHT22;38405;53.212;5.660;2023-04-24T01:47:26;10.20;99.90
52495;DHT22;38405;53.212;5.660;2023-04-24T01:49:51;10.20;99.90
52495;DHT22;38405;53.212;5.660;2023-04-24T01:52:17;10.20;99.90
52495;DHT22;38405;53.212;5.660;2023-04-24T01:54:44;10.10;99.90
52495;DHT22;38405;53.212;5.660;2023-04-24T01:57:10;10.10;99.90
52495;DHT22;38405;53.212;5.660;2023-04-24T01:59:36;10.10;99.90
52495;DHT22;38405;53.212;5.660;2023-04-24T02:02:02;10.10;99.90
52495;DHT22;38405;53.212;5.660;2023-04-24T02:04:28;10.10;99.90
52495;DHT22;38405;53.212;5.660;2023-04-24T02:06:54;10.00;99.90
52495;DHT22;38405;53.212;5.660;2023-04-24T02:09:20;10.00;99.90
52495;DHT22;38405;53.212;5.660;2023-04-24T02:11:46;10.10;99.90
52495;DHT22;38405;53.212;5.660;2023-04-24T02:14:11;10.00;99.90
52495;DHT22;38405;53.212;5.660;2023-04-24T02:16:37;10.00;99.90
52495;DHT22;38405;53.212;5.660;2023-04-24T02:19:03;10.00;99.90
52495;DHT22;38405;53.212;5.660;2023-04-24T02:21:29;10.00;99.90
52495;DHT22;38405;53.212;5.660;2023-04-24T02:23:56;9.90;99.90
52495;DHT22;38405;53.212;5.660;2023-04-24T02:26:22;9.90;99.90
52495;DHT22;38405;53.212;5.660;2023-04-24T02:28:47;9.90;99.90
52495;DHT22;38405;53.212;5.660;2023-04-24T02:31:13;9.90;99.90
52495;DHT22;38405;53.212;5.660;2023-04-24T02:33:39;9.90;99.90
52495;DHT22;38405;53.212;5.660;2023-04-24T02:36:05;9.90;99.90
52495;DHT22;38405;53.212;5.660;2023-04-24T02:38:30;9.90;99.90
52495;DHT22;38405;53.212;5.660;2023-04-24T02:40:56;9.90;99.90
52495;DHT22;38405;53.212;5.660;2023-04-24T02:43:22;9.90;99.90
52495;DHT22;38405;53.212;5.660;2023-04-24T02:45:47;9.90;99.90
52495;DHT22;38405;53.212;5.660;2023-04-24T02:48:13;9.90;99.90
52495;DHT22;38405;53.212;5.660;2023-04-24T02:50:38;9.90;99.90
52495;DHT22;38405;53.212;5.660;2023-04-24T02:53:04;9.90;99.90
52495;DHT22;38405;53.212;5.660;2023-04-24T02:55:30;9.90;99.90
52495;DHT22;38405;53.212;5.660;2023-04-24T02:57:55;9.90;99.90
52495;DHT22;38405;53.212;5.660;2023-04-24T03:00:21;9.80;99.90
52495;DHT22;38405;53.212;5.660;2023-04-24T03:02:47;9.90;99.90
52495;DHT22;38405;53.212;5.660;2023-04-24T03:05:13;9.90;99.90
52495;DHT22;38405;53.212;5.660;2023-04-24T03:07:39;9.90;99.90
52495;DHT22;38405;53.212;5.660;2023-04-24T03:10:05;9.80;99.90
52495;DHT22;38405;53.212;5.660;2023-04-24T03:12:31;9.90;99.90
52495;DHT22;38405;53.212;5.660;2023-04-24T03:14:58;9.90;99.90
52495;DHT22;38405;53.212;5.660;2023-04-24T03:17:23;9.80;99.90
52495;DHT22;38405;53.212;5.660;2023-04-24T03:19:49;9.80;99.90
52495;DHT22;38405;53.212;5.660;2023-04-24T03:22:15;9.80;99.90
52495;DHT22;38405;53.212;5.660;2023-04-24T03:24:41;9.80;99.90
52495;DHT22;38405;53.212;5.660;2023-04-24T03:27:07;9.80;99.90
52495;DHT22;38405;53.212;5.660;2023-04-24T03:29:32;9.80;99.90
52495;DHT22;38405;53.212;5.660;2023-04-24T03:31:58;9.80;99.90
52495;DHT22;38405;53.212;5.660;2023-04-24T03:34:24;9.80;99.90
52495;DHT22;38405;53.212;5.660;2023-04-24T03:36:49;9.80;99.90
52495;DHT22;38405;53.212;5.660;2023-04-24T03:39:15;9.70;99.90
52495;DHT22;38405;53.212;5.660;2023-04-24T03:41:41;9.70;99.90
52495;DHT22;38405;53.212;5.660;2023-04-24T03:44:06;9.70;99.90
52495;DHT22;38405;53.212;5.660;2023-04-24T03:46:32;9.60;99.90
52495;DHT22;38405;53.212;5.660;2023-04-24T03:48:58;9.70;99.90
52495;DHT22;38405;53.212;5.660;2023-04-24T03:51:23;9.70;99.90
52495;DHT22;38405;53.212;5.660;2023-04-24T03:53:49;9.60;99.90
52495;DHT22;38405;53.212;5.660;2023-04-24T03:56:15;9.60;99.90
52495;DHT22;38405;53.212;5.660;2023-04-24T03:58:41;9.60;99.90
52495;DHT22;38405;53.212;5.660;2023-04-24T04:01:07;9.60;99.90
52495;DHT22;38405;53.212;5.660;2023-04-24T04:03:33;9.50;99.90
52495;DHT22;38405;53.212;5.660;2023-04-24T04:05:58;9.60;99.90
52495;DHT22;38405;53.212;5.660;2023-04-24T04:08:24;9.60;99.90
52495;DHT22;38405;53.212;5.660;2023-04-24T04:10:50;9.50;99.90
52495;DHT22;38405;53.212;5.660;2023-04-24T04:13:16;9.50;99.90
52495;DHT22;38405;53.212;5.660;2023-04-24T04:15:41;9.50;99.90
52495;DHT22;38405;53.212;5.660;2023-04-24T04:18:07;9.40;99.90
52495;DHT22;38405;53.212;5.660;2023-04-24T04:20:33;9.40;99.90
52495;DHT22;38405;53.212;5.660;2023-04-24T04:22:59;9.40;99.90
52495;DHT22;38405;53.212;5.660;2023-04-24T04:25:25;9.40;99.90
52495;DHT22;38405;53.212;5.660;2023-04-24T04:27:51;9.40;99.90
52495;DHT22;38405;53.212;5.660;2023-04-24T04:30:17;9.40;99.90
52495;DHT22;38405;53.212;5.660;2023-04-24T04:32:43;9.40;99.90
52495;DHT22;38405;53.212;5.660;2023-04-24T04:35:09;9.40;99.90
52495;DHT22;38405;53.212;5.660;2023-04-24T04:37:35;9.50;99.90
52495;DHT22;38405;53.212;5.660;2023-04-24T04:40:02;9.50;99.90
52495;DHT22;38405;53.212;5.660;2023-04-24T04:42:32;9.50;99.90
52495;DHT22;38405;53.212;5.660;2023-04-24T04:45:00;9.50;99.90
52495;DHT22;38405;53.212;5.660;2023-04-24T04:47:26;9.50;99.90
52495;DHT22;38405;53.212;5.660;2023-04-24T04:49:52;9.50;99.90
52495;DHT22;38405;53.212;5.660;2023-04-24T04:52:18;9.50;99.90
52495;DHT22;38405;53.212;5.660;2023-04-24T04:54:44;9.50;99.90
52495;DHT22;38405;53.212;5.660;2023-04-24T04:57:10;9.60;99.90
52495;DHT22;38405;53.212;5.660;2023-04-24T04:59:36;9.50;99.90
52495;DHT22;38405;53.212;5.660;2023-04-24T05:02:02;9.50;99.90
52495;DHT22;38405;53.212;5.660;2023-04-24T05:04:28;9.50;99.90
52495;DHT22;38405;53.212;5.660;2023-04-24T05:06:53;9.50;99.90
52495;DHT22;38405;53.212;5.660;2023-04-24T05:09:19;9.60;99.90
52495;DHT22;38405;53.212;5.660;2023-04-24T05:11:45;9.60;99.90
52495;DHT22;38405;53.212;5.660;2023-04-24T05:14:10;9.50;99.90
52495;DHT22;38405;53.212;5.660;2023-04-24T05:16:38;9.50;99.90
52495;DHT22;38405;53.212;5.660;2023-04-24T05:19:04;9.50;99.90
52495;DHT22;38405;53.212;5.660;2023-04-24T05:21:30;9.50;99.90
52495;DHT22;38405;53.212;5.660;2023-04-24T05:23:56;9.40;99.90
52495;DHT22;38405;53.212;5.660;2023-04-24T05:26:22;9.40;99.90
52495;DHT22;38405;53.212;5.660;2023-04-24T05:28:48;9.40;99.90
52495;DHT22;38405;53.212;5.660;2023-04-24T05:31:15;9.40;99.90
52495;DHT22;38405;53.212;5.660;2023-04-24T05:33:40;9.40;99.90
52495;DHT22;38405;53.212;5.660;2023-04-24T05:36:06;9.30;99.90
52495;DHT22;38405;53.212;5.660;2023-04-24T05:38:32;9.30;99.90
52495;DHT22;38405;53.212;5.660;2023-04-24T05:40:58;9.30;99.90
52495;DHT22;38405;53.212;5.660;2023-04-24T05:43:23;9.30;99.90
52495;DHT22;38405;53.212;5.660;2023-04-24T05:45:49;9.30;99.90
52495;DHT22;38405;53.212;5.660;2023-04-24T05:48:15;9.30;99.90
52495;DHT22;38405;53.212;5.660;2023-04-24T05:50:41;9.30;99.90
52495;DHT22;38405;53.212;5.660;2023-04-24T05:53:06;9.30;99.90
52495;DHT22;38405;53.212;5.660;2023-04-24T05:55:32;9.30;99.90
52495;DHT22;38405;53.212;5.660;2023-04-24T05:57:58;9.30;99.90
52495;DHT22;38405;53.212;5.660;2023-04-24T06:00:25;9.30;99.90
52495;DHT22;38405;53.212;5.660;2023-04-24T06:02:50;9.30;99.90
52495;DHT22;38405;53.212;5.660;2023-04-24T06:05:18;9.30;99.90
52495;DHT22;38405;53.212;5.660;2023-04-24T06:07:44;9.30;99.90
52495;DHT22;38405;53.212;5.660;2023-04-24T06:10:10;9.20;99.90
52495;DHT22;38405;53.212;5.660;2023-04-24T06:12:36;9.20;99.90
52495;DHT22;38405;53.212;5.660;2023-04-24T06:15:02;9.20;99.90
52495;DHT22;38405;53.212;5.660;2023-04-24T06:17:28;9.20;99.90
52495;DHT22;38405;53.212;5.660;2023-04-24T06:19:53;9.20;99.90
52495;DHT22;38405;53.212;5.660;2023-04-24T06:22:19;9.10;99.90
52495;DHT22;38405;53.212;5.660;2023-04-24T06:24:45;9.10;99.90
52495;DHT22;38405;53.212;5.660;2023-04-24T06:27:10;9.00;99.90
52495;DHT22;38405;53.212;5.660;2023-04-24T06:29:36;9.00;99.90
52495;DHT22;38405;53.212;5.660;2023-04-24T06:32:02;9.00;99.90
52495;DHT22;38405;53.212;5.660;2023-04-24T06:34:27;8.90;99.90
52495;DHT22;38405;53.212;5.660;2023-04-24T06:36:54;8.90;99.90
52495;DHT22;38405;53.212;5.660;2023-04-24T06:39:20;8.90;99.90
52495;DHT22;38405;53.212;5.660;2023-04-24T06:41:46;8.90;99.90
52495;DHT22;38405;53.212;5.660;2023-04-24T06:44:11;8.90;99.90
52495;DHT22;38405;53.212;5.660;2023-04-24T06:46:37;8.90;99.90
52495;DHT22;38405;53.212;5.660;2023-04-24T06:49:03;9.00;99.90
52495;DHT22;38405;53.212;5.660;2023-04-24T06:51:28;9.00;99.90
52495;DHT22;38405;53.212;5.660;2023-04-24T06:53:54;9.00;99.90
52495;DHT22;38405;53.212;5.660;2023-04-24T06:56:21;9.00;99.90
52495;DHT22;38405;53.212;5.660;2023-04-24T06:58:48;9.00;99.90
52495;DHT22;38405;53.212;5.660;2023-04-24T07:01:13;9.00;99.90
52495;DHT22;38405;53.212;5.660;2023-04-24T07:03:39;8.90;99.90
52495;DHT22;38405;53.212;5.660;2023-04-24T07:06:05;9.00;99.90
52495;DHT22;38405;53.212;5.660;2023-04-24T07:08:31;8.90;99.90
52495;DHT22;38405;53.212;5.660;2023-04-24T07:10:59;8.90;99.90
52495;DHT22;38405;53.212;5.660;2023-04-24T07:13:25;9.00;99.90
52495;DHT22;38405;53.212;5.660;2023-04-24T07:15:50;8.90;99.90
52495;DHT22;38405;53.212;5.660;2023-04-24T07:18:18;8.80;99.90
52495;DHT22;38405;53.212;5.660;2023-04-24T07:20:43;8.80;99.90
52495;DHT22;38405;53.212;5.660;2023-04-24T07:23:10;8.90;99.90
52495;DHT22;38405;53.212;5.660;2023-04-24T07:25:35;8.90;99.90
52495;DHT22;38405;53.212;5.660;2023-04-24T07:28:01;8.90;99.90
52495;DHT22;38405;53.212;5.660;2023-04-24T07:30:27;9.00;99.90
52495;DHT22;38405;53.212;5.660;2023-04-24T07:32:54;9.00;99.90
52495;DHT22;38405;53.212;5.660;2023-04-24T07:35:21;9.00;99.90
52495;DHT22;38405;53.212;5.660;2023-04-24T07:37:47;9.00;99.90
52495;DHT22;38405;53.212;5.660;2023-04-24T07:40:13;9.10;99.90
52495;DHT22;38405;53.212;5.660;2023-04-24T07:42:39;9.10;99.90
52495;DHT22;38405;53.212;5.660;2023-04-24T07:45:05;9.30;99.90
52495;DHT22;38405;53.212;5.660;2023-04-24T07:47:31;9.30;99.90
52495;DHT22;38405;53.212;5.660;2023-04-24T07:49:57;9.40;99.90
52495;DHT22;38405;53.212;5.660;2023-04-24T07:52:23;9.40;99.90
52495;DHT22;38405;53.212;5.660;2023-04-24T07:54:49;9.50;99.90
52495;DHT22;38405;53.212;5.660;2023-04-24T07:57:16;9.50;99.90
52495;DHT22;38405;53.212;5.660;2023-04-24T07:59:41;9.60;99.90
52495;DHT22;38405;53.212;5.660;2023-04-24T08:02:07;9.60;99.90
52495;DHT22;38405;53.212;5.660;2023-04-24T08:04:33;9.60;99.90
52495;DHT22;38405;53.212;5.660;2023-04-24T08:06:59;9.60;99.90
52495;DHT22;38405;53.212;5.660;2023-04-24T08:09:24;9.50;99.90
52495;DHT22;38405;53.212;5.660;2023-04-24T08:11:50;9.50;99.90
52495;DHT22;38405;53.212;5.660;2023-04-24T08:14:16;9.40;99.90
52495;DHT22;38405;53.212;5.660;2023-04-24T08:16:42;9.40;99.90
52495;DHT22;38405;53.212;5.660;2023-04-24T08:19:08;9.60;99.90
52495;DHT22;38405;53.212;5.660;2023-04-24T08:21:33;9.60;99.90
52495;DHT22;38405;53.212;5.660;2023-04-24T08:23:59;9.60;99.90
52495;DHT22;38405;53.212;5.660;2023-04-24T08:26:25;9.70;99.90
52495;DHT22;38405;53.212;5.660;2023-04-24T08:28:51;9.80;99.90
52495;DHT22;38405;53.212;5.660;2023-04-24T08:31:17;9.90;99.90
52495;DHT22;38405;53.212;5.660;2023-04-24T08:33:42;10.00;99.90
52495;DHT22;38405;53.212;5.660;2023-04-24T08:36:13;10.10;99.90
52495;DHT22;38405;53.212;5.660;2023-04-24T08:38:38;10.20;99.90
52495;DHT22;38405;53.212;5.660;2023-04-24T08:41:04;10.40;99.90
52495;DHT22;38405;53.212;5.660;2023-04-24T08:43:33;10.50;99.90
52495;DHT22;38405;53.212;5.660;2023-04-24T08:46:00;10.70;99.90
52495;DHT22;38405;53.212;5.660;2023-04-24T08:48:26;10.80;99.90
52495;DHT22;38405;53.212;5.660;2023-04-24T08:50:53;10.90;99.90
52495;DHT22;38405;53.212;5.660;2023-04-24T08:53:19;11.10;99.90
52495;DHT22;38405;53.212;5.660;2023-04-24T08:55:47;11.10;99.90
52495;DHT22;38405;53.212;5.660;2023-04-24T08:58:15;11.00;99.90
52495;DHT22;38405;53.212;5.660;2023-04-24T09:00:43;11.10;99.90
52495;DHT22;38405;53.212;5.660;2023-04-24T09:03:16;10.90;99.90
52495;DHT22;38405;53.212;5.660;2023-04-24T09:05:44;10.70;99.90
52495;DHT22;38405;53.212;5.660;2023-04-24T09:08:13;10.60;99.90
52495;DHT22;38405;53.212;5.660;2023-04-24T09:10:40;10.50;99.90
52495;DHT22;38405;53.212;5.660;2023-04-24T09:13:06;10.60;99.90
52495;DHT22;38405;53.212;5.660;2023-04-24T09:15:34;10.60;99.90
52495;DHT22;38405;53.212;5.660;2023-04-24T09:18:00;10.70;99.90
52495;DHT22;38405;53.212;5.660;2023-04-24T09:20:26;10.80;99.90
52495;DHT22;38405;53.212;5.660;2023-04-24T09:22:57;11.00;99.90
52495;DHT22;38405;53.212;5.660;2023-04-24T09:25:23;10.90;99.90
52495;DHT22;38405;53.212;5.660;2023-04-24T09:27:53;10.80;99.90
52495;DHT22;38405;53.212;5.660;2023-04-24T09:30:23;10.80;99.90
52495;DHT22;38405;53.212;5.660;2023-04-24T09:32:48;10.80;99.90
52495;DHT22;38405;53.212;5.660;2023-04-24T09:35:15;10.80;99.90
52495;DHT22;38405;53.212;5.660;2023-04-24T09:37:46;10.80;99.90
52495;DHT22;38405;53.212;5.660;2023-04-24T09:40:19;10.80;99.90
52495;DHT22;38405;53.212;5.660;2023-04-24T09:42:51;10.70;99.90
52495;DHT22;38405;53.212;5.660;2023-04-24T09:45:17;10.70;99.90
52495;DHT22;38405;53.212;5.660;2023-04-24T09:47:43;10.60;99.90
52495;DHT22;38405;53.212;5.660;2023-04-24T09:50:10;10.70;99.90
52495;DHT22;38405;53.212;5.660;2023-04-24T09:52:40;10.80;99.90
52495;DHT22;38405;53.212;5.660;2023-04-24T09:55:18;10.80;99.90
52495;DHT22;38405;53.212;5.660;2023-04-24T09:57:54;10.90;99.90
52495;DHT22;38405;53.212;5.660;2023-04-24T10:00:26;11.00;99.90
52495;DHT22;38405;53.212;5.660;2023-04-24T10:03:02;11.00;99.90
52495;DHT22;38405;53.212;5.660;2023-04-24T10:07:57;11.40;99.90
52495;DHT22;38405;53.212;5.660;2023-04-24T10:10:23;11.40;99.90
52495;DHT22;38405;53.212;5.660;2023-04-24T10:12:49;11.50;99.90
52495;DHT22;38405;53.212;5.660;2023-04-24T10:15:16;11.50;99.90
52495;DHT22;38405;53.212;5.660;2023-04-24T10:17:50;11.50;99.90
52495;DHT22;38405;53.212;5.660;2023-04-24T10:20:23;11.60;99.90
52495;DHT22;38405;53.212;5.660;2023-04-24T10:22:50;11.60;99.90
52495;DHT22;38405;53.212;5.660;2023-04-24T10:25:30;11.60;99.90
52495;DHT22;38405;53.212;5.660;2023-04-24T10:27:58;11.60;99.90
52495;DHT22;38405;53.212;5.660;2023-04-24T10:30:35;11.50;99.90
52495;DHT22;38405;53.212;5.660;2023-04-24T10:33:04;11.50;99.90
52495;DHT22;38405;53.212;5.660;2023-04-24T10:35:32;11.40;99.90
52495;DHT22;38405;53.212;5.660;2023-04-24T10:38:03;11.30;99.90
52495;DHT22;38405;53.212;5.660;2023-04-24T10:40:34;11.10;99.90
52495;DHT22;38405;53.212;5.660;2023-04-24T10:43:03;10.80;99.90
52495;DHT22;38405;53.212;5.660;2023-04-24T10:45:31;10.50;99.90
52495;DHT22;38405;53.212;5.660;2023-04-24T10:48:03;10.40;99.90
52495;DHT22;38405;53.212;5.660;2023-04-24T10:50:30;10.30;99.90
52495;DHT22;38405;53.212;5.660;2023-04-24T10:53:11;10.20;99.90
52495;DHT22;38405;53.212;5.660;2023-04-24T10:55:46;10.20;99.90
52495;DHT22;38405;53.212;5.660;2023-04-24T10:58:12;10.10;99.90
52495;DHT22;38405;53.212;5.660;2023-04-24T11:00:39;10.00;99.90
52495;DHT22;38405;53.212;5.660;2023-04-24T11:03:23;10.00;99.90
52495;DHT22;38405;53.212;5.660;2023-04-24T11:06:07;10.00;99.90
52495;DHT22;38405;53.212;5.660;2023-04-24T11:08:43;10.00;99.90
52495;DHT22;38405;53.212;5.660;2023-04-24T11:11:10;10.10;99.90
52495;DHT22;38405;53.212;5.660;2023-04-24T11:16:31;10.50;99.90
52495;DHT22;38405;53.212;5.660;2023-04-24T11:19:02;10.80;99.90
52495;DHT22;38405;53.212;5.660;2023-04-24T11:21:42;11.00;99.90
52495;DHT22;38405;53.212;5.660;2023-04-24T11:27:22;10.70;99.90
52495;DHT22;38405;53.212;5.660;2023-04-24T11:32:39;10.60;99.90
52495;DHT22;38405;53.212;5.660;2023-04-24T11:37:41;10.60;99.90
52495;DHT22;38405;53.212;5.660;2023-04-24T11:40:09;10.70;99.90
52495;DHT22;38405;53.212;5.660;2023-04-24T11:42:48;10.90;99.90
52495;DHT22;38405;53.212;5.660;2023-04-24T11:45:16;11.10;99.90
52495;DHT22;38405;53.212;5.660;2023-04-24T11:47:43;11.30;99.90
52495;DHT22;38405;53.212;5.660;2023-04-24T11:50:22;11.80;99.90
52495;DHT22;38405;53.212;5.660;2023-04-24T11:52:49;12.20;99.90
52495;DHT22;38405;53.212;5.660;2023-04-24T11:57:48;12.40;99.90
52495;DHT22;38405;53.212;5.660;2023-04-24T12:00:15;12.40;99.90
52495;DHT22;38405;53.212;5.660;2023-04-24T12:02:41;12.30;99.90
52495;DHT22;38405;53.212;5.660;2023-04-24T12:05:07;12.30;99.90
52495;DHT22;38405;53.212;5.660;2023-04-24T12:07:40;12.20;99.90
52495;DHT22;38405;53.212;5.660;2023-04-24T12:10:08;12.10;99.90
52495;DHT22;38405;53.212;5.660;2023-04-24T12:12:34;12.00;99.90
52495;DHT22;38405;53.212;5.660;2023-04-24T12:15:01;11.90;99.90
52495;DHT22;38405;53.212;5.660;2023-04-24T12:17:33;11.80;99.90
52495;DHT22;38405;53.212;5.660;2023-04-24T12:20:07;11.70;99.90
52495;DHT22;38405;53.212;5.660;2023-04-24T12:22:53;11.80;99.90
52495;DHT22;38405;53.212;5.660;2023-04-24T12:25:22;12.00;99.90
52495;DHT22;38405;53.212;5.660;2023-04-24T12:27:54;12.00;99.90
52495;DHT22;38405;53.212;5.660;2023-04-24T12:30:20;11.90;99.90
52495;DHT22;38405;53.212;5.660;2023-04-24T12:32:48;11.90;99.90
52495;DHT22;38405;53.212;5.660;2023-04-24T12:35:25;11.90;99.90
52495;DHT22;38405;53.212;5.660;2023-04-24T12:37:51;11.80;99.90
52495;DHT22;38405;53.212;5.660;2023-04-24T12:40:18;11.90;99.90
52495;DHT22;38405;53.212;5.660;2023-04-24T12:42:53;11.70;99.90
52495;DHT22;38405;53.212;5.660;2023-04-24T12:45:19;11.80;99.90
52495;DHT22;38405;53.212;5.660;2023-04-24T12:47:45;11.70;99.90
52495;DHT22;38405;53.212;5.660;2023-04-24T12:50:15;11.70;99.90
52495;DHT22;38405;53.212;5.660;2023-04-24T12:52:42;11.60;99.90
52495;DHT22;38405;53.212;5.660;2023-04-24T12:55:07;11.40;99.90
52495;DHT22;38405;53.212;5.660;2023-04-24T12:57:36;11.30;99.90
52495;DHT22;38405;53.212;5.660;2023-04-24T13:00:02;11.00;99.90
52495;DHT22;38405;53.212;5.660;2023-04-24T13:02:29;10.80;99.90
52495;DHT22;38405;53.212;5.660;2023-04-24T13:04:58;10.60;99.90
52495;DHT22;38405;53.212;5.660;2023-04-24T13:07:25;10.40;99.90
52495;DHT22;38405;53.212;5.660;2023-04-24T13:09:51;10.30;99.90
52495;DHT22;38405;53.212;5.660;2023-04-24T13:12:17;10.20;99.90
52495;DHT22;38405;53.212;5.660;2023-04-24T13:14:43;10.30;99.90
52495;DHT22;38405;53.212;5.660;2023-04-24T13:17:09;10.40;99.90
52495;DHT22;38405;53.212;5.660;2023-04-24T13:19:36;10.50;99.90
52495;DHT22;38405;53.212;5.660;2023-04-24T13:22:03;10.40;99.90
52495;DHT22;38405;53.212;5.660;2023-04-24T13:24:29;10.30;99.90
52495;DHT22;38405;53.212;5.660;2023-04-24T13:26:55;10.30;99.90
52495;DHT22;38405;53.212;5.660;2023-04-24T13:29:22;10.20;99.90
52495;DHT22;38405;53.212;5.660;2023-04-24T13:31:50;10.30;99.90
52495;DHT22;38405;53.212;5.660;2023-04-24T13:34:16;10.40;99.90
52495;DHT22;38405;53.212;5.660;2023-04-24T13:36:42;10.40;99.90
52495;DHT22;38405;53.212;5.660;2023-04-24T13:39:07;10.40;99.90
52495;DHT22;38405;53.212;5.660;2023-04-24T13:41:33;10.20;99.90
52495;DHT22;38405;53.212;5.660;2023-04-24T13:43:59;10.10;99.90
52495;DHT22;38405;53.212;5.660;2023-04-24T13:46:25;10.10;99.90
52495;DHT22;38405;53.212;5.660;2023-04-24T13:48:51;10.20;99.90
52495;DHT22;38405;53.212;5.660;2023-04-24T13:51:18;10.20;99.90
52495;DHT22;38405;53.212;5.660;2023-04-24T13:53:43;10.20;99.90
52495;DHT22;38405;53.212;5.660;2023-04-24T13:56:12;10.20;99.90
52495;DHT22;38405;53.212;5.660;2023-04-24T13:58:40;10.20;99.90
52495;DHT22;38405;53.212;5.660;2023-04-24T14:01:05;10.10;99.90
52495;DHT22;38405;53.212;5.660;2023-04-24T14:03:33;10.00;99.90
52495;DHT22;38405;53.212;5.660;2023-04-24T14:05:59;9.90;99.90
52495;DHT22;38405;53.212;5.660;2023-04-24T14:08:24;10.00;99.90
52495;DHT22;38405;53.212;5.660;2023-04-24T14:10:51;10.10;99.90
52495;DHT22;38405;53.212;5.660;2023-04-24T14:13:17;10.10;99.90
52495;DHT22;38405;53.212;5.660;2023-04-24T14:15:42;10.00;99.90
52495;DHT22;38405;53.212;5.660;2023-04-24T14:18:08;10.00;99.90
52495;DHT22;38405;53.212;5.660;2023-04-24T14:20:34;9.90;99.90
52495;DHT22;38405;53.212;5.660;2023-04-24T14:22:59;9.90;99.90
52495;DHT22;38405;53.212;5.660;2023-04-24T14:25:25;9.80;99.90
52495;DHT22;38405;53.212;5.660;2023-04-24T14:27:51;9.80;99.90
52495;DHT22;38405;53.212;5.660;2023-04-24T14:30:21;9.80;99.90
52495;DHT22;38405;53.212;5.660;2023-04-24T14:32:46;9.70;99.90
52495;DHT22;38405;53.212;5.660;2023-04-24T14:35:12;9.70;99.90
52495;DHT22;38405;53.212;5.660;2023-04-24T14:37:39;9.70;99.90
52495;DHT22;38405;53.212;5.660;2023-04-24T14:40:07;9.80;99.90
52495;DHT22;38405;53.212;5.660;2023-04-24T14:42:33;9.70;99.90
52495;DHT22;38405;53.212;5.660;2023-04-24T14:44:59;9.70;99.90
52495;DHT22;38405;53.212;5.660;2023-04-24T14:47:25;9.60;99.90
52495;DHT22;38405;53.212;5.660;2023-04-24T14:49:51;9.70;99.90
52495;DHT22;38405;53.212;5.660;2023-04-24T14:52:17;9.70;99.90
52495;DHT22;38405;53.212;5.660;2023-04-24T14:54:43;9.60;99.90
52495;DHT22;38405;53.212;5.660;2023-04-24T14:57:09;9.80;99.90
52495;DHT22;38405;53.212;5.660;2023-04-24T14:59:34;9.70;99.90
52495;DHT22;38405;53.212;5.660;2023-04-24T15:02:00;9.60;99.90
52495;DHT22;38405;53.212;5.660;2023-04-24T15:04:29;9.50;99.90
52495;DHT22;38405;53.212;5.660;2023-04-24T15:06:56;9.40;99.90
52495;DHT22;38405;53.212;5.660;2023-04-24T15:09:23;9.30;99.90
52495;DHT22;38405;53.212;5.660;2023-04-24T15:11:50;9.30;99.90
52495;DHT22;38405;53.212;5.660;2023-04-24T15:14:17;9.40;99.90
52495;DHT22;38405;53.212;5.660;2023-04-24T15:16:43;9.50;99.90
52495;DHT22;38405;53.212;5.660;2023-04-24T15:19:09;9.50;99.90
52495;DHT22;38405;53.212;5.660;2023-04-24T15:21:36;9.40;99.90
52495;DHT22;38405;53.212;5.660;2023-04-24T15:24:02;9.30;99.90
52495;DHT22;38405;53.212;5.660;2023-04-24T15:26:28;9.20;99.90
52495;DHT22;38405;53.212;5.660;2023-04-24T15:28:54;9.20;99.90
52495;DHT22;38405;53.212;5.660;2023-04-24T15:31:19;9.20;99.90
52495;DHT22;38405;53.212;5.660;2023-04-24T15:33:45;9.30;99.90
52495;DHT22;38405;53.212;5.660;2023-04-24T15:36:11;9.30;99.90
52495;DHT22;38405;53.212;5.660;2023-04-24T15:38:37;9.30;99.90
52495;DHT22;38405;53.212;5.660;2023-04-24T15:41:03;9.40;99.90
52495;DHT22;38405;53.212;5.660;2023-04-24T15:43:29;9.40;99.90
52495;DHT22;38405;53.212;5.660;2023-04-24T15:45:57;9.50;99.90
52495;DHT22;38405;53.212;5.660;2023-04-24T15:48:22;9.60;99.90
52495;DHT22;38405;53.212;5.660;2023-04-24T15:50:48;9.50;99.90
52495;DHT22;38405;53.212;5.660;2023-04-24T15:53:16;9.40;99.90